Aviation Digital Data Service (ADDS)

Output produced by METARs form (1911 UTC 18 June 2019)
found at http://www.aviationweather.gov/metar/data/
 
TAF CYXX 181738Z 1818/1918 20012KT P6SM BKN030 
     TEMPO 1818/1821 BKN020 
     FM182100 21015KT P6SM SCT050 
     TEMPO 1821/1903 BKN050 
     FM190300 19015KT P6SM BKN050 
     BECMG 1904/1906 19008KT 
     FM190900 19008KT P6SM SCT020 BKN050 
     TEMPO 1909/1915 P6SM -SHRA BKN020 OVC040 
     FM191500 20012KT P6SM BKN025 RMK NXT FCST BY 190000Z
       
TAF CYLT 181730Z 1818/1906 20020KT P6SM SCT040 BKN120 BKN200 
     BECMG 1901/1903 20008KT 
     FM190400 04005KT P6SM FEW004 BKN140 BKN200 RMK NXT FCST BY 190000Z
       
TAF CYEK 181738Z 1818/1906 18015KT P6SM BKN250 
     BECMG 1902/1904 18012KT RMK NXT FCST BY 190000Z
       
TAF CYBG 181730Z 1818/1918 32010G20KT P6SM SCT080 
     BECMG 1900/1902 VRB03KT 
     FM190400 VRB03KT P6SM BKN080 
     FM191100 VRB03KT P6SM BKN040 
     TEMPO 1911/1918 P6SM -SHRA SCT020 OVC040 
     BECMG 1913/1915 08010KT RMK NXT FCST BY 182100Z
       
TAF CYBC 181338Z 1814/1902 22005KT P6SM SKC 
     BECMG 1814/1816 21012KT 
     FM181900 22010KT P6SM BKN070 
     BECMG 1822/1824 VRB03KT RMK FCST BASED ON AUTO OBS. NXT FCST BY 182000Z
       
TAF CYBK 181738Z 1818/1906 VRB03KT P6SM SCT130 
     BECMG 1820/1822 32010KT 
     FM190000 34010KT P6SM SCT100 
     TEMPO 1900/1906 BKN080 
     BECMG 1903/1905 36015KT RMK NXT FCST BY 190000Z
       
TAF CZBF 181338Z 1814/1902 30012KT P6SM SKC 
     FM181700 28008KT P6SM SCT070 
     TEMPO 1817/1824 BKN070 
     BECMG 1822/1824 VRB03KT RMK FCST BASED ON AUTO OBS. NXT FCST BY 182000Z
       
TAF CYBR 181741Z 1818/1906 21006KT P6SM SCT040 BKN240 
     TEMPO 1820/1903 P6SM VCSH BKN040 BKN240 
     FM190300 09005KT P6SM FEW040 RMK NXT FCST BY 190000Z
       
TAF CYVT 181838Z 1819/1904 17010G20KT P6SM SCT070 
     TEMPO 1823/1902 BKN070 
     FM190200 18010KT P6SM BKN080 RMK NXT FCST BY 190100Z
       
TAF CYDB 181738Z 1818/1906 11006KT P6SM FEW040 SCT060 BKN080 
     TEMPO 1818/1824 P6SM -SHRA OVC040 
     FM190000 31010KT P6SM -SHRA SCT020 BKN040 RMK NXT FCST BY 190000Z
       
TAF CYYC 181750Z 1818/1918 35012KT P6SM BKN020 
     BECMG 1818/1820 BKN025 
     FM182000 01012KT P6SM BKN030 
     TEMPO 1820/1822 P6SM -SHRA 
     PROB30 1820/1822 VRB15G25KT 5SM TSRA BKN030CB 
     FM182200 10008KT P6SM VCSH BKN030 
     TEMPO 1822/1903 VRB20G30KT 4SM TSRA BKN025CB 
     PROB40 1822/1902 VRB25G40KT 11/2SM TSRAGR BKN020CB 
     FM190300 10008KT P6SM BKN040 
     TEMPO 1903/1908 P6SM -SHRA 
     FM190800 15010KT 5SM -SHRA BR VCTS SCT006 OVC012CB 
     FM191200 27008KT P6SM BKN010 OVC080 
     FM191500 33022G32KT P6SM BKN020 RMK NXT FCST BY 182100Z
       
TAF CYBW 181750Z 1818/1904 06012KT P6SM BKN025 
     BECMG 1818/1819 BKN020 
     FM182000 01012KT P6SM VCSH BKN025 
     TEMPO 1820/1821 VRB15G25KT 5SM TSRA BKN025CB 
     FM182100 10008KT P6SM VCSH BKN030 
     TEMPO 1821/1903 VRB20G30KT 4SM TSRA BKN025CB 
     PROB40 1821/1902 VRB25G40KT 11/2SM TSRAGR BKN020CB 
     FM190300 10008KT P6SM BKN040 
     TEMPO 1903/1904 P6SM -SHRA RMK FCST BASED ON AUTO OBS. NXT FCST BY 190000Z
       
TAF CYCB 181838Z 1819/1907 33012KT P6SM FEW009 OVC020 RMK NXT FCST BY 190100Z
       
TAF CYBL 181838Z 1819/1904 31012G22KT P6SM FEW030 SCT270 RMK NXT FCST BY 190100Z
       
TAF CYTE 181838Z 1819/1907 24008KT P6SM SCT015 
     TEMPO 1819/1907 BKN015 RMK NXT FCST BY 190100Z
       
TAF CYCG 181838Z 1819/1904 VRB03KT P6SM SCT070 
     TEMPO 1819/1823 BKN070 
     FM182300 22008KT P6SM SCT100 RMK NXT FCST BY 190100Z
       
TAF CYLD 181338Z 1814/1901 VRB03KT P6SM BKN100 
     TEMPO 1814/1821 5SM -SHRA BR 
     BECMG 1814/1816 04008KT 
     FM182100 04008KT P6SM -SHRA BKN040 
     PROB30 1821/1823 3SM TSRA BR BKN030CB RMK NXT FCST BY 182000Z
       
TAF CYYG 181738Z 1818/1906 31010KT P6SM SKC 
     FM190000 18006KT P6SM SKC 
     BECMG 1904/1906 22008KT RMK NXT FCST BY 190000Z
       
TAF CYMT 181739Z 1818/1824 32008KT P6SM BKN030 
     FM181900 32007KT P6SM SCT040 
     TEMPO 1819/1821 BKN040 RMK FCST BASED ON AUTO OBS. NXT FCST WILL BE ISSUED
AT 191145Z
       
TAF CYYQ 181741Z 1818/1918 16008KT P6SM FEW060 
     FM190000 20010KT P6SM FEW180 RMK NXT FCST BY 190000Z
       
TAF CZUM 181341Z 1814/1902 VRB03KT P6SM SCT020 BKN030 
     TEMPO 1814/1817 3SM -RA BR BKN008 OVC020 
     PROB30 1814/1817 3/4SM BR 
     FM181700 27008KT P6SM BKN050 
     PROB30 1817/1820 2SM BR OVC004 
     FM182000 29005KT 1SM -RA BR OVC004 
     TEMPO 1820/1824 6SM -RA BR OVC040 RMK FCST BASED ON AUTO OBS. NXT FCST BY
182000Z
       
TAF CYCY 181838Z 1819/1907 18012KT P6SM FEW070 
     FM190200 18015KT P6SM SCT100 
     TEMPO 1902/1905 P6SM -RA BKN080 
     FM190500 18015KT P6SM -RA OVC060 RMK FCST BASED ON AUTO OBS. NXT FCST BY
190100Z
       
TAF CYOD 181726Z 1818/1918 16012KT P6SM SCT090 
     TEMPO 1819/1822 BKN090 
     FM182200 29015G25KT P6SM -SHRA OVC080 
     PROB30 1822/1903 VRB15G25KT 5SM TSRA OVC070CB 
     FM190400 30008KT P6SM BKN120 BKN240 
     FM190600 30005KT P6SM BKN240 
     BECMG 1908/1910 02005KT 
     FM191500 02010KT P6SM OVC025 
     TEMPO 1915/1918 P6SM -SHRA OVC020 RMK NXT FCST BY 182100Z
       
TAF CYQQ 181735Z 1818/1918 35015KT P6SM FEW040 
     FM182200 35012KT P6SM BKN060 
     BECMG 1900/1902 34012G22KT 
     FM191000 32010KT P6SM SCT060 RMK NXT FCST BY 190000Z
       
TAF CYZS 181838Z 1819/1907 19008KT P6SM FEW090 RMK NXT FCST BY 190100Z
       
TAF CYXC 181838Z 1819/1907 VRB03KT P6SM FEW070 SCT120 
     FM182000 14007KT P6SM SCT070 
     TEMPO 1820/1824 P6SM -SHRA VCTS BKN070CB 
     FM190000 16008KT P6SM FEW040 SCT100 
     BECMG 1904/1906 19006KT RMK NXT FCST BY 190100Z
       
TAF CYDN 181741Z 1818/1906 35006KT P6SM FEW080 
     BECMG 1818/1820 06006KT RMK FCST BASED ON AUTO OBS. NXT FCST BY 190000Z
       
TAF CYDA 181738Z 1818/1903 VRB03KT P6SM BKN080 OVC100 
     FM182100 06005KT P6SM SCT050 BKN080 
     TEMPO 1821/1903 P6SM -SHRA VCTS BKN050CB RMK NXT FCST BY 190000Z
       
TAF CYDQ 181838Z 1819/1905 22022G32KT P6SM SKC 
     FM182100 26022G32KT P6SM SCT070 
     TEMPO 1821/1905 P6SM VCTS BKN070CB RMK FCST BASED ON AUTO OBS. NXT FCST BY
190100Z
       
TAF CYDL 181738Z 1818/1902 22008KT P6SM FEW040 OVC070 
     TEMPO 1818/1902 P6SM -SHRA BKN040 OVC070 
     BECMG 1818/1820 22010G20KT RMK FCST BASED ON AUTO OBS. NXT FCST BY 190000Z
       
TAF CYDF 181341Z 1814/1902 21012G22KT P6SM BKN030 
     TEMPO 1814/1817 BKN012 
     FM181700 28010G20KT P6SM SCT030 
     FM182200 24008KT P6SM BKN050 RMK NXT FCST BY 182000Z
       
TAF CYWJ 181738Z 1818/1823 18006KT P6SM SCT050 BKN100 RMK NXT FCST WILL BE
ISSUED AT 191415Z
       
TAF CYHD 181338Z 1814/1902 04005KT P6SM FEW080 
     FM181700 04007KT P6SM SCT060 
     BECMG 1900/1902 VRB03KT RMK FCST BASED ON AUTO OBS. NXT FCST BY 182000Z
       
TAF CYXR 181738Z 1818/1824 VRB03KT P6SM SKC 
     BECMG 1818/1820 BKN090 
     FM182000 34005KT P6SM BKN090 
     TEMPO 1820/1822 P6SM -SHRA 
     FM182200 34005KT P6SM BKN070 
     TEMPO 1822/1824 P6SM -SHRA VCTS BKN040CB RMK FCST BASED ON AUTO OBS. NXT
FCST WILL BE ISSUED AT 191145Z
       
TAF CYEG 181750Z 1818/1918 30010KT P6SM BKN025 
     TEMPO 1818/1819 BKN020 
     BECMG 1820/1821 BKN040 
     FM182100 33012KT P6SM SCT050 BKN250 
     TEMPO 1821/1824 BKN050 BKN250 
     FM190000 33010KT P6SM BKN060 
     TEMPO 1902/1904 P6SM -SHRA 
     BECMG 1905/1907 VRB03KT 
     FM191000 35012G22KT P6SM -RA BKN012 OVC030 
     TEMPO 1911/1914 4SM SHRA BR BKN012 
     FM191400 35012G22KT 6SM -RA BR SCT008 OVC012 
     TEMPO 1914/1917 4SM RA BR BKN008 RMK NXT FCST BY 182100Z
       
TAF CZVL 181750Z 1818/1906 30010KT P6SM BKN025 
     TEMPO 1818/1819 BKN020 
     BECMG 1820/1821 BKN040 
     FM182100 33012KT P6SM SCT050 BKN250 
     TEMPO 1821/1824 BKN050 BKN250 
     FM190000 33010KT P6SM BKN060 
     TEMPO 1902/1904 P6SM -SHRA 
     BECMG 1905/1906 VRB03KT RMK FCST BASED ON AUTO OBS. NXT FCST BY 190000Z
       
TAF CYEN 181741Z 1818/1824 10010KT P6SM FEW060 RMK FCST BASED ON AUTO OBS. NXT
FCST WILL BE ISSUED AT 191145Z
       
TAF CZFA 181738Z 1818/1901 VRB03KT P6SM SCT015 BKN040 OVC060 
     TEMPO 1818/1901 5SM -SHRA BR BKN020 OVC040 
     BECMG 1821/1823 12008KT RMK NXT FCST WILL BE ISSUED AT 191445Z
       
TAF CYPY 181738Z 1818/1906 19008KT P6SM FEW080 
     FM182200 20010KT P6SM SCT060 BKN080 
     TEMPO 1822/1903 P6SM -SHRA BKN060 
     PROB30 1822/1903 VRB20G30KT 4SM TSRA BKN060CB 
     FM190300 22007KT P6SM SCT070 BKN100 RMK FCST BASED ON AUTO OBS. NXT FCST BY
190000Z
       
TAF CYGH 181738Z 1818/1823 06005KT P6SM FEW070 SCT220 RMK NXT FCST WILL BE
ISSUED AT 191415Z
       
TAF CYMM 181838Z 1819/1907 20012G22KT P6SM SCT090 
     FM182000 20012KT P6SM BKN070 
     TEMPO 1820/1823 25020G30KT P6SM -SHRA VCTS BKN050CB 
     FM190000 23006KT P6SM BKN100 
     FM190200 21005KT P6SM FEW120 BKN200 RMK FCST BASED ON AUTO OBS. NXT FCST BY
190100Z
       
TAF CZFM 181838Z 1819/1823 30006KT P6SM FEW070 
     BECMG 1819/1821 02007KT RMK NXT FCST WILL BE ISSUED AT 191445Z
       
TAF CYYE 181838Z 1819/1907 29012G22KT P6SM FEW020 SCT080 BKN120 
     TEMPO 1819/1822 P6SM -SHRA SCT020 BKN080 
     FM182200 27012KT P6SM -SHRA SCT020 BKN050 
     TEMPO 1822/1907 6SM -SHRA VCTS BR BKN020CB OVC050 RMK NXT FCST BY 190100Z
       
TAF CYFS 181738Z 1818/1906 33015KT P6SM SCT008 OVC040 
     TEMPO 1818/1820 4SM -SHRA BR BKN008 OVC040 
     FM182000 32012KT P6SM -SHRA SCT012 OVC040 
     TEMPO 1820/1906 5SM -SHRA BR BKN012 OVC040 
     PROB30 1820/1903 VRB15G25KT 2SM TSRA BR BKN015 OVC040CB RMK NXT FCST BY
190000Z
       
TAF CYSM 181738Z 1818/1906 16012KT P6SM FEW100 BKN240 
     TEMPO 1822/1824 P6SM VCTS BKN080CB 
     FM190000 22008KT P6SM SCT060 BKN080 
     TEMPO 1900/1903 4SM -SHRA FU BKN060 
     PROB40 1900/1903 VRB20G30KT 2SM TSRA FU BKN060CB 
     FM190300 20007KT P6SM FEW060 BKN080 RMK NXT FCST BY 190000Z
       
TAF CYXJ 181838Z 1819/1907 24020G30KT P6SM BKN060 
     FM182100 24022G32KT P6SM SCT070 
     TEMPO 1821/1903 P6SM VCTS BKN070CB 
     FM190300 26015G25KT P6SM BKN080 RMK NXT FCST BY 190100Z
       
TAF CYFC 181738Z 1818/1906 27012KT P6SM SKC 
     BECMG 1818/1820 26006KT 
     FM190100 20008KT P6SM BKN080 RMK FCST BASED ON AUTO OBS. NXT FCST BY
190000Z
       
TAF CYQX 181738Z 1818/1918 32012G22KT P6SM OVC010 
     TEMPO 1818/1822 4SM -RA BR OVC004 
     FM182200 33010G20KT P6SM OVC006 
     TEMPO 1822/1902 2SM -DZ BR 
     FM190200 33012KT 1SM -DZ BR OVC004 
     PROB30 1902/1910 OVC003 
     FM191000 33010KT P6SM OVC010 
     PROB30 1910/1912 3SM BR OVC006 
     FM191200 31008KT P6SM OVC012 
     FM191600 32010KT P6SM SCT030 RMK NXT FCST BY 190000Z
       
TAF CYGP 181338Z 1814/1902 VRB03KT P6SM FEW050 
     BECMG 1816/1818 10008KT RMK NXT FCST BY 182000Z
       
TAF CYND 181738Z 1818/1901 19005KT P6SM BKN060 
     BECMG 1821/1823 VRB03KT RMK NXT FCST WILL BE ISSUED AT 191245Z
       
TAF CYGQ 181338Z 1814/1902 05007KT P6SM OVC070 
     FM181600 03006KT P6SM BKN060 
     FM182000 02006KT P6SM FEW060 RMK NXT FCST BY 182000Z
       
TAF CYHK 181738Z 1818/1906 36020KT P6SM SCT012 
     TEMPO 1818/1906 BKN012 
     BECMG 1823/1901 33012KT RMK NXT FCST BY 190000Z
       
TAF CYYR 181730Z 1818/1918 28008KT P6SM SCT025 BKN050 
     TEMPO 1818/1903 P6SM -SHRA BKN020 
     BECMG 1821/1823 36005KT 
     FM190300 VRB03KT P6SM SCT015 BKN030 
     TEMPO 1903/1909 BKN015 
     FM190900 04005KT P6SM BKN005 
     FM191300 06005KT P6SM BKN010 
     FM191600 06005KT P6SM BKN015 RMK NXT FCST BY 190000Z
       
TAF CYZE 181338Z 1814/1822 22005KT P6SM BKN100 
     FM182100 21010KT P6SM BKN060 
     TEMPO 1821/1822 4SM -SHRA BR RMK FCST BASED ON AUTO OBS. NXT FCST BY
182000Z
       
TAF CYQU 181838Z 1819/1907 24025G35KT P6SM FEW060 
     TEMPO 1822/1901 BKN060 
     FM190200 26018G28KT P6SM SCT070 
     FM190400 26012G22KT P6SM SKC RMK NXT FCST BY 190100Z
       
TAF CYZX 181733Z 1818/1918 28012KT P6SM FEW060 BKN250 
     BECMG 1822/1824 VRB03KT 
     FM190600 VRB03KT P6SM SCT080 BKN140 
     FM190900 VRB03KT P6SM SCT015 BKN080 
     FM191500 30008KT P6SM SCT050 RMK NXT FCST BY 190000Z
       
TAF CYHZ 181738Z 1818/1918 27012G22KT P6SM BKN070 
     TEMPO 1818/1821 SCT070 
     FM182100 31010G20KT P6SM FEW070 
     BECMG 1822/1824 32006KT 
     BECMG 1902/1904 04005KT 
     FM190700 VRB03KT P6SM SKC 
     PROB30 1907/1912 2SM BR 
     FM191200 23008KT P6SM FEW050 
     BECMG 1916/1918 22010G20KT RMK NXT FCST BY 182100Z
       
TAF CYAW 181733Z 1818/1906 27010KT P6SM FEW070 BKN250 
     BECMG 1819/1821 22012KT 
     FM190000 VRB03KT P6SM SCT250 
     BECMG 1904/1906 SCT160 RMK NXT FCST BY 190000Z
       
TAF CYUX 181838Z 1819/1907 18015KT P6SM OVC080 
     TEMPO 1819/1824 P6SM -RA OVC050 
     BECMG 1822/1824 26013KT 
     FM190000 26013KT P6SM -RA SCT015 OVC050 
     TEMPO 1900/1903 OVC015 
     FM190300 31012KT P6SM SCT015 OVC025 
     TEMPO 1903/1907 P6SM -RA OVC015 RMK NXT FCST BY 190100Z
       
TAF CYHM 181739Z 1818/1918 05008KT P6SM SCT050 BKN240 
     BECMG 1822/1824 VRB03KT 
     FM190400 VRB03KT P6SM FEW050 
     FM191600 06005KT P6SM FEW060 BKN240 RMK NXT FCST BY 190000Z
       
TAF CYGV 181338Z 1814/1902 25007KT P6SM SCT060 
     BECMG 1814/1816 25015KT 
     FM190000 26010KT P6SM BKN050 RMK FCST BASED ON AUTO OBS. NXT FCST BY
182000Z
       
TAF CYHY 181738Z 1818/1906 20008KT 3SM FU FEW020 SCT050 BKN080 
     TEMPO 1818/1820 6SM FU 
     FM182000 22008KT P6SM SCT050 BKN080 
     TEMPO 1820/1904 2SM -SHRA FU SCT020 BKN050 
     PROB30 1820/1904 VRB15G25KT 11/2SM TSRA FU BKN020 BKN050CB 
     FM190400 18008KT 3SM FU SCT050 BKN080 RMK NXT FCST BY 190000Z
       
TAF CYOJ 181838Z 1819/1907 15010G20KT 2SM FU SCT020 BKN100 
     TEMPO 1819/1821 1/2SM FU VV020 
     FM182100 13010KT 5SM FU SCT040 
     TEMPO 1821/1902 VRB15G25KT 11/2SM -TSRA FU BKN030CB 
     BECMG 1823/1901 26006KT 
     FM190200 25008KT 5SM FU BKN040 
     TEMPO 1902/1905 P6SM -SHRA 
     FM190500 23005KT 5SM -RA FU OVC025 
     TEMPO 1905/1907 2SM -RA FU OVC020 RMK NXT FCST BY 190100Z
       
TAF CYHI 181838Z 1819/1824 26010KT P6SM SCT005 BKN060 
     TEMPO 1819/1824 BKN005 RMK NXT FCST WILL BE ISSUED AT 191545Z
       
TAF CYGR 181338Z 1814/1902 28010KT P6SM SKC 
     BECMG 1822/1824 VRB03KT RMK NXT FCST BY 182000Z
       
TAF CYEV 181838Z 1819/1907 03006KT P6SM FEW250 RMK NXT FCST BY 190100Z
       
TAF CYFB 181738Z 1818/1918 15005KT P6SM SCT080 
     FM190300 VRB03KT P6SM SCT040 
     TEMPO 1903/1918 BKN025 
     BECMG 1914/1916 23007KT RMK NXT FCST BY 190000Z
       
TAF CYIK 181338Z 1814/1821 03010KT P6SM SCT100 BKN200 
     PROB30 1814/1817 1/2SM FG VV002 RMK NXT FCST WILL BE ISSUED AT 191345Z
       
TAF CYKA 181838Z 1819/1907 28010KT P6SM SCT090 BKN240 
     FM182200 26008KT P6SM SCT090 
     TEMPO 1822/1904 P6SM -SHRA BKN090 
     BECMG 1823/1901 22010KT 
     FM190400 22010KT P6SM SCT080 RMK NXT FCST BY 190100Z
       
TAF CYAS 181338Z 1814/1821 03017G27KT P6SM SCT004 OVC080 
     TEMPO 1814/1819 1SM BR OVC004 
     FM181900 04015G25KT P6SM BKN012 OVC025 
     TEMPO 1819/1821 SCT012 OVC025 RMK NXT FCST WILL BE ISSUED AT 191345Z
       
TAF CYYU 181338Z 1814/1902 VRB03KT P6SM BKN060 
     TEMPO 1814/1818 P6SM -SHRA 
     BECMG 1816/1818 33006KT 
     FM181800 33006KT P6SM BKN060 BKN100 
     BECMG 1821/1823 01005KT FEW060 RMK NXT FCST BY 182000Z
       
TAF CYLW 181838Z 1819/1907 VRB03KT P6SM SCT070 BKN100 
     TEMPO 1819/1822 BKN070 OVC090 
     FM182200 20008KT P6SM SCT090 
     BECMG 1823/1901 21015G25KT 
     FM190500 18008KT P6SM SKC RMK FCST BASED ON AUTO OBS. NXT FCST BY 190100Z
       
TAF CYQK 181338Z 1814/1902 VRB03KT P6SM SCT100 
     FM181800 04006KT P6SM SCT070 RMK NXT FCST BY 182000Z
       
TAF CYKF 181338Z 1814/1902 VRB03KT P6SM BKN060 
     FM182000 VRB03KT P6SM BKN040 
     TEMPO 1820/1901 P6SM -SHRA RMK FCST BASED ON AUTO OBS. NXT FCST BY 182000Z
       
TAF CYBB 181838Z 1819/1823 25010KT P6SM -RA SCT015 OVC025 
     TEMPO 1819/1821 3SM -RA BR OVC015 
     BECMG 1819/1821 33012KT 
     FM182100 33012KT P6SM SCT006 OVC015 
     TEMPO 1821/1823 2SM -RA BR OVC006 RMK NXT FCST WILL BE ISSUED AT 191345Z
       
TAF CYCO 181838Z 1819/1907 33005KT P6SM OVC015 
     FM190000 33006KT P6SM SCT015 
     TEMPO 1900/1902 BKN015 RMK NXT FCST BY 190100Z
       
TAF CYVP 181742Z 1818/1906 06008KT P6SM SCT015 BKN050 BKN100 
     TEMPO 1818/1824 P6SM -SHRA BKN020 OVC040 
     FM190000 01008KT P6SM BKN020 BKN040 
     PROB30 1903/1906 BKN005 OVC015 RMK NXT FCST BY 190000Z
       
TAF CYGL 181742Z 1818/1918 26010KT 11/2SM -DZ -RA BR OVC005 
     TEMPO 1818/1824 6SM BR OVC008 
     FM190300 26012KT 2SM -RA -DZ BR OVC002 
     FM190900 26007KT 3/4SM -DZ -RA BR OVC002 
     FM191300 28005KT 3SM -RA -DZ BR OVC004 
     FM191600 31005KT P6SM -RA BKN006 OVC012 RMK NXT FCST BY 190000Z
       
TAF CYVC 181838Z 1819/1907 14008KT P6SM SCT070 
     FM190200 16006KT P6SM SKC RMK NXT FCST BY 190100Z
       
TAF CYQL 181750Z 1818/1906 34015G25KT P6SM SCT050 SCT100 
     TEMPO 1819/1822 P6SM -SHRA VCTS BKN050CB 
     FM182200 32010KT P6SM BKN060 
     PROB30 1822/1903 VRB20G35KT 3SM TSRA BKN060CB 
     FM190300 15008KT P6SM VCSH BKN060 RMK NXT FCST BY 190000Z
       
TAF CYLL 181750Z 1818/1906 14012G22KT P6SM SCT050 
     FM182000 16010KT P6SM BKN070 
     TEMPO 1820/1903 P6SM -SHRA VCTS BKN050CB 
     BECMG 1822/1824 31010KT 
     FM190500 31006KT P6SM FEW070 BKN200 RMK NXT FCST BY 190000Z
       
TAF CYXU 181739Z 1818/1918 23005KT P6SM BKN040 
     FM190100 VRB03KT P6SM SCT040 
     PROB30 1907/1911 1SM BR 
     FM191500 VRB03KT P6SM BKN050 OVC260 RMK NXT FCST BY 190000Z
       
TAF AMD CYBX 181646Z 1816/1902 12008KT P6SM BKN040 
     TEMPO 1816/1821 4SM -RA BR OVC010 
     FM182100 12008KT 2SM -RA BR OVC003 
     TEMPO 1821/1901 6SM -RA BR OVC010 
     FM190100 VRB03KT 2SM -RA BR OVC003 
     PROB30 1901/1902 1/2SM -DZ FG VV002 RMK NXT FCST BY 182000Z
       
TAF CYYL 181838Z 1819/1907 20008KT P6SM BKN080 
     FM190300 20005KT P6SM FEW080 RMK FCST BASED ON AUTO OBS. NXT FCST BY
190100Z
       
TAF CYZY 181838Z 1819/1907 22012G22KT P6SM SCT040 OVC090 
     TEMPO 1819/1907 P6SM -SHRA BKN040 OVC090 
     BECMG 1904/1906 23008KT RMK FCST BASED ON AUTO OBS. NXT FCST BY 190100Z
       
TAF CYSP 181338Z 1814/1821 VRB03KT P6SM BKN070 
     TEMPO 1814/1820 P6SM -SHRA 
     FM182000 VRB03KT P6SM BKN040 RMK NXT FCST WILL BE ISSUED AT 191345Z
       
TAF CZMT 181838Z 1819/1824 19008KT P6SM -SHRA SCT008 SCT015 BKN040 
     TEMPO 1819/1824 3SM -SHRA BR BKN008 OVC015 RMK NXT FCST WILL BE ISSUED AT
191415Z
       
TAF CYMA 181738Z 1818/1906 VRB03KT P6SM FEW050 SCT080 BKN120 
     FM182100 27008KT P6SM BKN060 
     TEMPO 1821/1906 P6SM -SHRA VCTS OVC060CB RMK NXT FCST BY 190000Z
       
TAF CYXH 181750Z 1818/1906 21015KT P6SM SCT060 BKN130 
     TEMPO 1818/1824 P6SM -SHRA VCTS BKN060CB 
     BECMG 1818/1820 25010KT 
     FM190000 33010KT P6SM SCT100 RMK NXT FCST BY 190000Z
       
TAF CYQM 181738Z 1818/1918 30012KT P6SM BKN060 
     FM182200 26012KT P6SM SCT060 
     BECMG 1900/1902 23008KT 
     FM190400 21008KT P6SM BKN080 RMK NXT FCST BY 190000Z
       
TAF CYYY 181338Z 1814/1902 27007KT P6SM FEW060 
     BECMG 1816/1818 24012KT RMK NXT FCST BY 182000Z
       
TAF CYUL 181738Z 1818/1918 19008KT P6SM SCT060 
     BECMG 1823/1901 VRB03KT 
     BECMG 1913/1915 22008KT RMK NXT FCST BY 182100Z
       
TAF CYMX 181738Z 1818/1918 20005KT P6SM BKN060 
     FM190000 VRB03KT P6SM SCT060 
     BECMG 1913/1915 22008KT RMK NXT FCST BY 190000Z
       
TAF CYHU 181738Z 1818/1918 19008KT P6SM SCT060 
     BECMG 1823/1901 VRB03KT 
     BECMG 1913/1915 22008KT RMK FCST BASED ON AUTO OBS. NXT FCST BY 190000Z
       
TAF CYMJ 181726Z 1818/1906 16012G22KT P6SM FEW090 
     FM182100 16012G22KT P6SM SCT090 
     TEMPO 1821/1824 P6SM -SHRA VCTS BKN070CB 
     FM190200 15012KT P6SM BKN090 BKN250 RMK NXT FCST BY 190000Z
       
TAF CYQA 181338Z 1814/1902 VRB03KT P6SM SCT060 BKN220 
     FM181700 22006KT P6SM BKN050 RMK FCST BASED ON AUTO OBS. NXT FCST BY
182000Z
       
TAF CYCD 181738Z 1818/1904 36012G22KT P6SM SCT020 BKN050 
     TEMPO 1818/1821 BKN020 BKN040 
     FM182100 02008KT P6SM SCT050 
     TEMPO 1821/1904 BKN050 
     BECMG 1901/1903 VRB03KT RMK NXT FCST BY 190000Z
       
TAF AMD CYNA 181418Z 1814/1902 26008KT 21/2SM BR BKN005 
     TEMPO 1814/1818 P6SM NSW FEW005 SCT060 
     FM181800 27012KT P6SM SCT060 
     TEMPO 1818/1820 BKN060 
     FM190000 27010KT P6SM SCT060 RMK FCST BASED ON AUTO OBS. NXT FCST BY
182000Z
       
TAF CYVQ 181738Z 1818/1906 14005KT P6SM FEW040 SCT100 
     BECMG 1901/1903 10010KT RMK NXT FCST BY 190000Z
       
TAF CYQW 181741Z 1818/1906 12012G22KT P6SM SKC 
     FM182100 15012G22KT P6SM BKN070 
     TEMPO 1821/1902 P6SM -SHRA 
     BECMG 1900/1902 34006KT 
     FM190200 34006KT P6SM FEW040 BKN070 
     TEMPO 1902/1906 P6SM -SHRA BKN040 OVC070 
     PROB30 1902/1906 VRB20G30KT 4SM TSRA BR OVC040CB RMK FCST BASED ON AUTO
OBS. NXT FCST BY 190000Z
       
TAF CYYB 181338Z 1814/1902 VRB03KT P6SM FEW200 
     BECMG 1814/1816 24007KT 
     FM181900 24007KT P6SM BKN100 
     TEMPO 1819/1902 P6SM -SHRA BKN080 
     PROB30 1823/1901 2SM TSRA OVC060CB RMK NXT FCST BY 182000Z
       
TAF CYOC 181738Z 1818/1901 04010G20KT P6SM FEW030 BKN050 
     FM182100 05008KT P6SM SCT060 RMK NXT FCST WILL BE ISSUED AT 191445Z
       
TAF CYOO 181338Z 1814/1902 09005KT P6SM BKN070 
     BECMG 1814/1816 16008KT 
     BECMG 1822/1824 VRB03KT RMK FCST BASED ON AUTO OBS. NXT FCST BY 182000Z
       
TAF CYOW 181738Z 1818/1918 19005KT P6SM BKN060 
     BECMG 1821/1823 VRB03KT 
     FM190800 17008KT P6SM SCT060 
     BECMG 1910/1912 23006KT RMK NXT FCST BY 182100Z
       
TAF CYXP 181838Z 1819/1822 26008KT P6SM SCT230 RMK NXT FCST WILL BE ISSUED AT
191245Z
       
TAF CYPC 181838Z 1819/1823 29005KT P6SM FEW030 SCT120 RMK NXT FCST WILL BE
ISSUED AT 191445Z
       
TAF CYPE 181838Z 1819/1907 23018G28KT P6SM BKN060 
     TEMPO 1821/1902 SCT060 
     FM190200 23015G25KT P6SM SCT080 
     BECMG 1905/1907 25012KT RMK NXT FCST BY 190100Z
       
TAF CYYF 181838Z 1819/1907 02008KT P6SM SCT090 SCT150 
     TEMPO 1819/1822 BKN080 BKN150 
     FM182200 34012KT P6SM FEW090 SCT150 RMK NXT FCST BY 190100Z
       
TAF CYWA 181730Z 1818/1906 VRB03KT P6SM SCT160 
     BECMG 1820/1822 BKN050 
     FM190400 VRB03KT P6SM SCT050 RMK FCST BASED ON AUTO OBS. NXT FCST BY
190000Z
       
TAF CYPQ 181338Z 1814/1902 VRB03KT P6SM BKN080 
     FM181700 15005KT P6SM SCT050 RMK FCST BASED ON AUTO OBS. NXT FCST BY
182000Z
       
TAF CYPL 181241Z 1813/1901 08005KT P6SM FEW050 
     BECMG 1816/1818 36005KT RMK NXT FCST BY 182000Z
       
TAF CYIO 181838Z 1819/1907 26005KT P6SM BKN100 
     TEMPO 1819/1822 P6SM -RA OVC060 
     FM182200 33005KT P6SM SCT020 OVC040 
     TEMPO 1822/1907 5SM -RA BR OVC020 
     BECMG 1903/1905 24015KT RMK NXT FCST BY 190100Z
       
TAF CYZT 181838Z 1819/1907 33012KT P6SM FEW030 BKN040 BKN220 
     FM190200 31012KT P6SM SCT015 BKN030 
     TEMPO 1902/1907 P6SM -SHRA BKN015 BKN030 RMK NXT FCST BY 190100Z
       
TAF CYPA 181838Z 1819/1907 16006KT P6SM SCT070 
     BECMG 1819/1821 16012KT 
     BECMG 1902/1904 12008KT RMK NXT FCST BY 190100Z
       
TAF CYXS 181838Z 1819/1907 24012G22KT P6SM SCT060 
     FM182100 22012G22KT P6SM BKN060 
     TEMPO 1821/1907 P6SM VCTS BKN060CB RMK FCST BASED ON AUTO OBS. NXT FCST BY
190100Z
       
TAF CYPR 181838Z 1819/1907 16007KT P6SM -SHRA FEW007 SCT015 OVC030 
     TEMPO 1819/1907 3SM SHRA BR SCT007 BKN015 OVC030 RMK FCST BASED ON AUTO
OBS. NXT FCST BY 190100Z
       
TAF CYPX 181738Z 1818/1906 07012KT P6SM BKN060 
     TEMPO 1818/1906 P6SM -SHRA OVC040 RMK FCST BASED ON AUTO OBS. NXT FCST BY
190000Z
       
TAF CYVM 181838Z 1819/1907 02005KT P6SM FEW100 
     BECMG 1820/1822 18005KT RMK NXT FCST BY 190100Z
       
TAF AMD CYHA 181706Z 1817/1821 36007KT P6SM SCT005 BKN110 
     TEMPO 1817/1821 2SM BR BKN005 OVC080 RMK NXT FCST WILL BE ISSUED AT 191345Z
       
TAF CYQB 181738Z 1818/1918 22008KT P6SM SCT050 
     FM190300 VRB03KT P6SM BKN080 
     FM191400 09007KT P6SM BKN060 RMK NXT FCST BY 190000Z
       
TAF CYQZ 181838Z 1819/1906 33008KT P6SM SCT070 
     TEMPO 1819/1906 P6SM -SHRA VCTS BKN050CB 
     BECMG 1822/1824 32010G20KT RMK FCST BASED ON AUTO OBS. NXT FCST BY 190100Z
       
TAF CYRT 181738Z 1818/1906 15010KT P6SM BKN200 RMK NXT FCST BY 190000Z
       
TAF CYQF 181750Z 1818/1906 36012KT P6SM BKN012 
     BECMG 1818/1820 BKN025 
     FM182100 02008KT P6SM SCT040 
     TEMPO 1821/1905 BKN040 
     FM190500 15008KT P6SM BKN040 RMK NXT FCST BY 190000Z
       
TAF CYRL 181338Z 1814/1902 VRB03KT P6SM FEW120 
     FM181600 VRB03KT P6SM FEW080 RMK NXT FCST BY 182000Z
       
TAF CYQR 181741Z 1818/1918 16012G22KT P6SM FEW070 
     FM190000 12010G20KT P6SM SCT080 
     FM190600 12012KT P6SM FEW080 
     FM191600 15012G22KT P6SM SCT060 RMK NXT FCST BY 190000Z
       
TAF CYUT 181838Z 1819/1822 12008KT P6SM BKN080 
     BECMG 1820/1822 18013KT RMK NXT FCST WILL BE ISSUED AT 191345Z
       
TAF AMD CYRB 181832Z 1818/1918 23013KT P6SM SCT004 OVC030 
     TEMPO 1818/1821 1SM -SN BR OVC004 
     FM182100 25015KT P6SM SCT012 BKN025 
     TEMPO 1821/1906 3SM -SN BR OVC012 
     FM190600 29015KT P6SM SCT006 OVC020 
     TEMPO 1906/1916 2SM -SN BR OVC006 
     FM191600 30013KT P6SM OVC020 RMK NXT FCST BY 190000Z
       
TAF CYRJ 181338Z 1814/1902 35005KT P6SM FEW080 
     BECMG 1821/1823 VRB03KT RMK NXT FCST BY 182000Z
       
TAF CYUY 181738Z 1818/1906 26005KT P6SM FEW040 SCT080 
     BECMG 1818/1820 32005KT 
     FM182000 32005KT P6SM BKN050 
     TEMPO 1820/1905 P6SM -SHRA BKN040 
     FM190500 32005KT P6SM SCT004 BKN030 RMK NXT FCST BY 190000Z
       
TAF AMD CYSY 181848Z 1819/1823 24012KT P6SM -SN FEW010 SCT020 OVC050 
     TEMPO 1819/1821 3SM -SN -PL BR SCT010 BKN020 OVC040 
     FM182100 27015G25KT P6SM FEW012 BKN050 
     TEMPO 1821/1823 4SM -SHRASN BKN012 OVC040 RMK NXT FCST WILL BE ISSUED AT
191445Z
       
TAF CYSJ 181738Z 1818/1906 27010G20KT P6SM FEW060 
     FM190300 20006KT P6SM FEW004 SCT180 
     TEMPO 1903/1906 2SM BR BKN004 
     PROB30 1903/1906 1/2SM FG VV002 RMK NXT FCST BY 190000Z
       
TAF AMD CYZG 181741Z 1817/1821 04013KT P6SM SCT001 BKN070 
     TEMPO 1817/1821 1/2SM FG VV001 RMK NXT FCST WILL BE ISSUED AT 191345Z
       
TAF CYZP 181838Z 1819/1907 23006KT P6SM -SHRA FEW020 BKN060 
     TEMPO 1819/1903 4SM -SHRA BR BKN020 BKN040 
     BECMG 1819/1821 23013KT 
     FM190300 26010KT P6SM SCT020 BKN040 
     TEMPO 1903/1907 P6SM -SHRA BKN020 BKN040 RMK FCST BASED ON AUTO OBS. NXT
FCST BY 190100Z
       
TAF CYZR 181338Z 1814/1902 34005KT P6SM BKN040 
     FM181800 01008KT P6SM SCT040 
     BECMG 1822/1824 VRB03KT RMK FCST BASED ON AUTO OBS. NXT FCST BY 182000Z
       
TAF CYXE 181741Z 1818/1918 14010G20KT P6SM FEW050 
     FM182100 16015G25KT P6SM BKN080 
     TEMPO 1821/1824 P6SM -SHRA 
     FM190200 18010G20KT P6SM FEW050 BKN080 
     TEMPO 1902/1906 P6SM -SHRA 
     PROB30 1902/1906 VRB20G30KT 5SM TSRA OVC050CB 
     FM190600 16008KT P6SM FEW080 
     FM191500 17012G22KT P6SM FEW040 BKN080 
     TEMPO 1915/1918 P6SM -SHRA BKN040 OVC080 RMK NXT FCST BY 190000Z
       
TAF CYAM 181338Z 1814/1902 VRB03KT P6SM FEW020 BKN090 
     BECMG 1816/1818 30007KT 
     FM181800 30007KT P6SM BKN060 
     TEMPO 1818/1822 P6SM -SHRA 
     PROB30 1820/1822 2SM TSRA BKN007 OVC040CB 
     FM182200 30007KT P6SM SCT004 OVC090 RMK NXT FCST BY 182000Z
       
TAF CYKL 181341Z 1814/1902 VRB03KT P6SM SCT015 OVC060 
     TEMPO 1814/1902 4SM -RA BR BKN015 OVC030 RMK FCST BASED ON AUTO OBS. NXT
FCST BY 182000Z
       
TAF CYZV 181738Z 1818/1918 22015KT P6SM FEW060 
     TEMPO 1818/1824 BKN060 
     BECMG 1822/1824 VRB03KT 
     FM190200 VRB03KT P6SM SCT070 
     BECMG 1904/1906 02006KT 
     FM191200 02006KT P6SM FEW040 
     FM191500 18008KT P6SM BKN150 RMK NXT FCST BY 190000Z
       
TAF CYSC 181738Z 1818/1903 24006KT P6SM SCT050 BKN240 
     BECMG 1900/1902 VRB03KT RMK FCST BASED ON AUTO OBS. NXT FCST BY 190000Z
       
TAF CYXL 181338Z 1814/1902 VRB03KT P6SM FEW090 
     FM181700 35005KT P6SM SCT060 
     BECMG 1822/1824 VRB03KT RMK NXT FCST BY 182000Z
       
TAF CYZH 181838Z 1819/1907 29015G25KT P6SM SCT050 
     FM190200 27010KT P6SM SKC 
     BECMG 1905/1907 25005KT RMK FCST BASED ON AUTO OBS. NXT FCST BY 190100Z
       
TAF CYYD 181838Z 1819/1906 VRB03KT P6SM BKN060 
     TEMPO 1819/1906 P6SM -SHRA VCTS BKN060CB 
     BECMG 1820/1822 30008KT RMK NXT FCST BY 190100Z
       
TAF CYPG 181730Z 1818/1906 VRB03KT P6SM SCT060 SCT240 RMK NXT FCST BY 190000Z
       
TAF AMD CYAY 181624Z 1816/1902 36005KT P6SM OVC040 
     TEMPO 1816/1820 4SM -RA BR OVC005 
     FM182000 VRB03KT 6SM -RA OVC010 
     TEMPO 1820/1901 2SM -RA BR OVC004 
     FM190100 35006KT 2SM -RA -DZ BR OVC003 RMK FCST BASED ON AUTO OBS. NXT FCST
BY 182000Z
       
TAF CYYT 181738Z 1818/1918 30012G22KT P6SM BKN040 
     FM182200 35005KT 6SM -RA BR OVC025 
     TEMPO 1822/1902 4SM -RA BR OVC012 
     FM190200 36005KT 6SM BR BKN050 
     PROB30 1903/1906 1SM BR 
     FM190600 27005KT 6SM BR OVC007 
     PROB30 1906/1910 1SM BR BKN003 
     FM191000 30010KT P6SM OVC010 RMK NXT FCST BY 190000Z
       
TAF AMD CYJT 181753Z 1818/1918 25008KT 2SM BR BKN005 OVC020 
     TEMPO 1818/1822 P6SM NSW SCT005 OVC020 
     FM182200 23010KT P6SM FEW020 
     FM190000 20005KT P6SM SCT050 
     FM190300 04005KT 6SM BR SCT050 
     PROB30 1903/1912 1SM BR 
     FM191200 23006KT P6SM FEW005 
     FM191600 25008KT P6SM BKN070 RMK NXT FCST BY 190000Z
       
TAF CYSB 181338Z 1814/1902 VRB03KT P6SM FEW200 
     BECMG 1814/1816 24007KT 
     FM181800 24007KT P6SM BKN100 
     TEMPO 1818/1902 P6SM -SHRA BKN080 
     PROB30 1822/1824 2SM TSRA OVC060CB RMK NXT FCST BY 182000Z
       
TAF CYYN 181741Z 1818/1906 16015G25KT P6SM SCT080 
     FM182000 19012G22KT P6SM FEW040 BKN080 
     TEMPO 1820/1906 P6SM -SHRA 
     PROB30 1820/1904 VRB20G30KT 5SM TSRA OVC040CB RMK FCST BASED ON AUTO OBS.
NXT FCST BY 190000Z
       
TAF CYQY 181738Z 1818/1906 11010KT P6SM BKN070 
     BECMG 1819/1821 16008KT 
     FM190000 30006KT P6SM FEW060 
     BECMG 1904/1906 22005KT RMK NXT FCST BY 190000Z
       
TAF CYYH 181738Z 1818/1906 36012G22KT P6SM SCT012 OVC030 
     TEMPO 1818/1822 5SM -RA BR BKN012 OVC030 
     FM182200 33013KT P6SM SCT030 
     TEMPO 1822/1906 BKN025 RMK NXT FCST BY 190000Z
       
TAF CYXT 181838Z 1819/1907 23008KT P6SM FEW020 BKN050 
     TEMPO 1819/1821 P6SM -SHRA BKN020 
     FM182100 18010G20KT P6SM SCT020 BKN050 
     TEMPO 1821/1907 P6SM -SHRA VCTS BKN020CB OVC050 RMK NXT FCST BY 190100Z
       
TAF CYZW 181738Z 1818/1901 24008KT P6SM SCT004 OVC070 
     TEMPO 1818/1819 P6SM -SHRA BKN004 OVC070 
     FM181900 24010KT P6SM OVC060 
     TEMPO 1819/1901 P6SM -SHRA OVC040 RMK NXT FCST WILL BE ISSUED AT 191445Z
       
TAF CYQD 181838Z 1819/1907 VRB03KT P6SM FEW080 
     BECMG 1819/1821 14006KT RMK FCST BASED ON AUTO OBS. NXT FCST BY 190100Z
       
TAF CYTH 181838Z 1819/1907 18005KT P6SM FEW210 
     FM182100 20006KT P6SM FEW080 
     BECMG 1900/1902 VRB03KT RMK NXT FCST BY 190100Z
       
TAF CYQT 181338Z 1814/1902 12005KT P6SM BKN050 BKN120 
     FM181700 10008KT P6SM SCT040 BKN080 
     TEMPO 1817/1824 P6SM -SHRA BKN040 OVC080 
     FM190000 VRB03KT P6SM BKN080 RMK NXT FCST BY 182000Z
       
TAF CYTS 181338Z 1814/1902 05005KT P6SM BKN090 
     BECMG 1816/1818 33005KT 
     FM181900 33005KT P6SM BKN080 
     TEMPO 1819/1902 P6SM -SHRA BKN050 RMK NXT FCST BY 182000Z
       
TAF CYAZ 181738Z 1818/1901 31008KT P6SM SCT020 BKN120 BKN220 
     BECMG 1818/1820 29017G27KT RMK NXT FCST WILL BE ISSUED AT 191445Z
       
TAF CYTZ 181338Z 1814/1914 VRB03KT P6SM BKN070 
     BECMG 1814/1816 12010KT 
     FM182300 VRB03KT P6SM BKN060 
     FM190400 VRB03KT 6SM BR SCT050 
     FM191200 VRB03KT P6SM FEW040 BKN240 RMK FCST BASED ON AUTO OBS. NXT FCST BY
182000Z
       
TAF CYYZ 181739Z 1818/1924 16010G20KT P6SM SCT060 BKN250 
     TEMPO 1822/1901 BKN050 
     BECMG 1823/1901 23006KT 
     FM190500 VRB03KT 6SM BR FEW050 
     FM190800 35005KT 4SM BR FEW040 
     PROB30 1908/1911 1SM BR 
     FM191100 05005KT P6SM FEW030 SCT080 
     FM191600 14008KT P6SM SCT040 BKN140 
     FM191900 12007KT P6SM -SHRA BKN030 BKN120 RMK NXT FCST BY 182100Z
       
TAF CYTR 181730Z 1818/1918 21008KT P6SM FEW040 BKN080 BKN240 
     BECMG 1818/1820 FEW080 
     BECMG 1823/1901 VRB03KT 
     FM190900 VRB03KT P6SM SCT080 BKN220 
     BECMG 1916/1918 21008KT RMK NXT FCST BY 190000Z
       
TAF CYRQ 181338Z 1814/1902 VRB03KT P6SM SCT080 
     FM181600 20008KT P6SM SCT060 RMK FCST BASED ON AUTO OBS. NXT FCST BY
182000Z
       
TAF CYUB 181838Z 1819/1905 34005KT P6SM FEW004 SCT220 RMK NXT FCST BY 190100Z
       
TAF CYVO 181738Z 1818/1906 30005KT P6SM SCT040 BKN080 
     FM182100 28005KT P6SM BKN050 
     TEMPO 1821/1906 P6SM -SHRA BKN040 
     BECMG 1823/1901 VRB03KT RMK NXT FCST BY 190000Z
       
TAF CYVR 181738Z 1818/1924 29015G25KT P6SM FEW030 SCT070 
     BECMG 1820/1822 25010KT 
     FM190300 26008KT P6SM BKN070 
     BECMG 1907/1909 10008KT 
     FM191100 09008KT P6SM SCT015 BKN060 
     BECMG 1913/1915 27015G25KT 
     FM191600 28018G28KT P6SM SCT050 
     FM192100 24012KT P6SM BKN050 RMK NXT FCST BY 182100Z
       
TAF CYYJ 181738Z 1818/1918 24006KT P6SM BKN050 
     TEMPO 1818/1822 SCT050 
     BECMG 1819/1821 12008KT 
     FM182200 12008KT P6SM FEW050 
     BECMG 1823/1901 25012KT 
     FM190600 28010KT P6SM FEW050 
     FM191500 24006KT P6SM BKN050 RMK NXT FCST BY 190000Z
       
TAF CYWK 181341Z 1814/1902 24008KT P6SM -RA SCT015 BKN030 
     TEMPO 1814/1902 4SM -RA BR OVC015 
     BECMG 1814/1816 27008KT RMK NXT FCST BY 182000Z
       
TAF CYQH 181738Z 1818/1906 VRB03KT P6SM -RA OVC040 
     TEMPO 1818/1906 5SM -SHRA BR BKN020 OVC040 
     BECMG 1818/1820 26012G22KT RMK NXT FCST BY 190000Z
       
TAF CYXZ 181241Z 1813/1824 VRB03KT P6SM BKN080 
     TEMPO 1813/1820 P6SM -SHRA BKN050 
     BECMG 1815/1817 04008KT 
     FM182200 04008KT P6SM BKN070 RMK NXT FCST BY 182000Z
       
TAF CYZU 181838Z 1819/1823 34005KT P6SM BKN030 
     TEMPO 1820/1821 P6SM -SHRA 
     BECMG 1820/1821 30012G22KT 
     FM182100 30012G22KT P6SM SCT050 
     TEMPO 1821/1823 P6SM VCTS SCT050CB BKN250 RMK NXT FCST WILL BE ISSUED AT
191415Z
       
TAF CYXY 181738Z 1818/1918 VRB03KT P6SM SCT050 BKN220 
     FM182100 26008KT P6SM BKN050 
     TEMPO 1821/1909 P6SM -SHRA OVC050 
     BECMG 1904/1906 20008KT 
     FM190900 19008KT P6SM FEW007 SCT012 OVC030 
     TEMPO 1909/1918 P6SM -RA SCT007 BKN012 OVC030 
     BECMG 1910/1912 VRB03KT RMK NXT FCST BY 190000Z
       
TAF CYVV 181338Z 1814/1823 VRB03KT P6SM FEW040 BKN100 
     FM182000 26007KT P6SM SCT100 BKN200 RMK NXT FCST BY 182000Z
       
TAF CYWL 181838Z 1819/1907 28008KT P6SM SCT060 
     FM182100 31008KT P6SM BKN060 
     TEMPO 1821/1907 P6SM -SHRA VCTS BKN040CB OVC060 RMK NXT FCST BY 190100Z
       
TAF CYQG 181739Z 1818/1918 VRB03KT P6SM SCT030 BKN060 
     TEMPO 1818/1821 BKN030 
     FM182100 17008KT P6SM SCT050 
     BECMG 1823/1901 VRB03KT 
     FM190800 VRB03KT 6SM BR FEW008 SCT040 
     FM191200 VRB03KT P6SM FEW040 BKN280 RMK FCST BASED ON AUTO OBS. NXT FCST BY
190000Z
       
TAF CYWG 181741Z 1818/1918 32006KT P6SM FEW070 BKN100 
     FM182000 32008KT P6SM BKN070 
     TEMPO 1820/1903 P6SM -SHRA 
     FM190300 VRB03KT P6SM FEW070 
     BECMG 1912/1914 11006KT RMK NXT FCST BY 190000Z
       
TAF CYQI 181738Z 1818/1906 25010KT P6SM SCT020 BKN060 
     TEMPO 1818/1824 BKN020 
     FM190000 20006KT P6SM FEW060 
     PROB30 1900/1903 2SM BR BKN006 
     FM190300 20006KT P6SM BKN070 
     TEMPO 1903/1906 6SM BR FEW004 
     PROB30 1903/1906 2SM BR OVC004 RMK NXT FCST BY 190000Z
       
TAF CYZF 181738Z 1818/1918 02010KT P6SM BKN120 OVC180 
     TEMPO 1818/1820 P6SM -SHRA BKN100 
     BECMG 1818/1820 18008KT 
     FM182000 18008KT 5SM VCSH FU BKN080 
     FM190100 VRB03KT P6SM BKN060 BKN080 
     TEMPO 1901/1904 5SM -SHRA FU 
     FM190600 17005KT 3SM -SHRA FU BR SCT020 OVC050 
     FM191300 14008KT P6SM SCT025 BKN050 RMK NXT FCST BY 190000Z
       
TAF CYQV 181741Z 1818/1906 16006KT P6SM SCT060 
     BECMG 1820/1822 09008KT 
     FM190000 09008KT P6SM SKC 
     BECMG 1904/1906 15006KT RMK FCST BASED ON AUTO OBS. NXT FCST BY 190000Z